Campanya meteocatpedra

Dades de l'estació automàtica Cabanes

?
?
Resum diari 21:00 TU
Dades diàries de l'estació meteorològica
Temperatura mitjana 21.8 °C
Temperatura màxima 30.1 °C 10:21 TU
Temperatura mínima 13.0 °C 4:37 TU
Humitat relativa mitjana 59%
Precipitació acumulada 0.0 mm
Ratxa màxima del vent (2 m) 25.9 km/h - 273º 10:27 TU
Irradiació solar global 28.4 MJ/m2

El tram horari està expressat en Temps Universal (TU). Cal sumar una hora en horari d'hivern i dues en horari d'estiu per passar a l'hora oficial.

Cabanes

Metadades estació meteorol´gica
Municipi Cabanes
Comarca Alt Empordà
Altitud 31 m
Data alta 11.06.1991
Estat actual Operativa
Dades de període
Període
TU
TM
°C
TX
°C
TN
°C
HRM
%
PPT
mm
VVM (2 m)
km/h
DVM (2 m)
graus
VVX (2 m)
km/h
RS
W/m2
00:00 - 00:30 14.5 14.8 14.3 78 0.0 0.4 49 2.5 0
00:30 - 01:00 14.8 15.0 14.5 77 0.0 0.0 43 2.5 0
01:00 - 01:30 14.3 14.6 13.8 81 0.0 0.4 192 2.5 0
01:30 - 02:00 14.0 14.3 13.8 82 0.0 0.7 40 4.0 0
02:00 - 02:30 14.6 15.2 14.0 76 0.0 1.1 295 5.8 0
02:30 - 03:00 14.2 14.5 13.9 79 0.0 0.4 310 4.0 0
03:00 - 03:30 14.0 14.3 13.5 80 0.0 0.0 347 1.1 0
03:30 - 04:00 13.5 13.8 13.2 83 0.0 0.0 76 1.4 0
04:00 - 04:30 13.8 14.0 13.6 80 0.0 0.0 339 2.2 3
04:30 - 05:00 13.6 14.3 13.0 83 0.0 0.0 0 0.0 14
05:00 - 05:30 14.6 14.8 14.3 79 0.0 1.1 344 4.7 23
05:30 - 06:00 16.1 18.0 14.7 74 0.0 2.2 347 5.8 152
06:00 - 06:30 18.9 20.0 18.1 64 0.0 4.0 326 7.9 294
06:30 - 07:00 21.2 22.1 20.0 57 0.0 1.8 337 5.0 369
07:00 - 07:30 23.8 25.4 22.2 48 0.0 1.4 335 6.1 491
07:30 - 08:00 25.1 25.6 24.7 49 0.0 1.8 179 5.4 583
08:00 - 08:30 25.9 27.1 25.1 49 0.0 2.5 161 8.6 656
08:30 - 09:00 26.5 27.3 25.6 48 0.0 2.9 164 8.6 709
09:00 - 09:30 27.5 28.5 26.5 44 0.0 2.5 103 9.7 776
09:30 - 10:00 28.4 28.9 27.9 36 0.0 3.6 263 10.8 830
10:00 - 10:30 29.3 30.1 28.6 35 0.0 3.2 211 25.9 851
10:30 - 11:00 28.9 29.4 28.3 38 0.0 4.0 127 12.6 881
11:00 - 11:30 28.0 28.9 27.3 42 0.0 5.4 100 16.9 806
11:30 - 12:00 27.9 28.4 27.4 42 0.0 4.3 119 14.0 788
12:00 - 12:30 27.6 28.4 27.1 44 0.0 5.0 120 15.5 871
12:30 - 13:00 27.4 27.7 27.1 44 0.0 5.0 124 17.6 888
13:00 - 13:30 27.5 28.3 27.0 44 0.0 4.7 127 18.7 894
13:30 - 14:00 27.1 27.8 26.5 43 0.0 5.4 100 14.8 818
14:00 - 14:30 27.1 27.7 26.7 44 0.0 5.0 99 16.2 754
14:30 - 15:00 26.8 27.9 25.4 46 0.0 5.0 105 18.0 663
15:00 - 15:30 25.8 26.3 25.2 47 0.0 3.6 123 12.6 562
15:30 - 16:00 25.8 26.3 25.5 47 0.0 3.2 117 10.8 499
16:00 - 16:30 25.9 26.5 25.3 46 0.0 2.9 135 8.6 474
16:30 - 17:00 25.4 25.9 25.1 47 0.0 2.5 129 8.3 394
17:00 - 17:30 25.5 26.0 25.1 46 0.0 2.2 152 7.9 308
17:30 - 18:00 24.9 25.2 24.4 47 0.0 1.8 130 7.2 222
18:00 - 18:30 24.2 24.4 23.9 49 0.0 1.1 130 4.3 132
18:30 - 19:00 23.1 23.8 22.3 55 0.0 0.4 118 3.2 65
19:00 - 19:30 20.9 22.2 20.0 65 0.0 0.0 202 1.8 11
19:30 - 20:00 19.3 19.9 18.6 72 0.0 0.4 210 2.9 1
20:00 - 20:30 18.3 18.6 18.0 77 0.0 0.4 208 2.9 0
20:30 - 21:00 18.0 18.1 18.0 77 0.0 0.0 219 1.1 0
21:00 - 21:30 17.5 18.1 17.3 80 0.0 0.7 208 2.9 0
21:30 - 22:00 17.1 17.5 16.6 82 0.0 0.7 210 2.9 0

Les dades en taronja només han passat un control de qualitat automàtic. Resta pendent la seva validació definitiva.